YPPD

Port Hedland International Airport

Airport
ICAO code
YPPD
IATA Code
PHE
Summary
ICAO Region
APAC
ICAO Territory
Location

, Western Australia

Serving
Port Hedland
Elevation
33 ft
Coordinates
20° 22' 40" S , 118° 37' 35" E
Metar
Observation
YPPD 021230Z AUTO 28012KT 9999 // NCD 28/23 Q1006 RF00.0/000.0
Station
Port Hedland Pardoo
Date/Time
2022-12-02 12:30:00
Wind direction
280°
Wind speed
12 kts
Lowest cloud amount
no clouds detected
Temperature
28°C
Dew point
23°C
Humidity
74%
QNH
1006 hPa
Weather condition
n/a

Airport map

Aerial View

SKYbrary Partners:

Safety knowledge contributed by: